sensor_id;sensor_type;location;lat;lon;timestamp;P1;durP1;ratioP1;P2;durP2;ratioP2
69594;SDS011;56800;52.142;5.364;2023-03-14T00:01:25;17.93;;;4.50;;
69594;SDS011;56800;52.142;5.364;2023-03-14T00:03:52;24.83;;;5.20;;
69594;SDS011;56800;52.142;5.364;2023-03-14T00:06:19;20.88;;;4.40;;
69594;SDS011;56800;52.142;5.364;2023-03-14T00:08:46;26.67;;;5.75;;
69594;SDS011;56800;52.142;5.364;2023-03-14T00:11:14;21.20;;;5.00;;
69594;SDS011;56800;52.142;5.364;2023-03-14T00:13:45;23.60;;;4.60;;
69594;SDS011;56800;52.142;5.364;2023-03-14T00:16:13;23.27;;;4.43;;
69594;SDS011;56800;52.142;5.364;2023-03-14T00:18:40;26.33;;;4.88;;
69594;SDS011;56800;52.142;5.364;2023-03-14T00:21:08;22.92;;;4.68;;
69594;SDS011;56800;52.142;5.364;2023-03-14T00:23:37;28.67;;;4.53;;
69594;SDS011;56800;52.142;5.364;2023-03-14T00:26:06;24.90;;;4.80;;
69594;SDS011;56800;52.142;5.364;2023-03-14T00:28:35;27.90;;;4.60;;
69594;SDS011;56800;52.142;5.364;2023-03-14T00:31:03;24.20;;;4.82;;
69594;SDS011;56800;52.142;5.364;2023-03-14T00:33:33;29.15;;;4.57;;
69594;SDS011;56800;52.142;5.364;2023-03-14T00:36:02;27.67;;;5.22;;
69594;SDS011;56800;52.142;5.364;2023-03-14T00:38:31;22.93;;;4.57;;
69594;SDS011;56800;52.142;5.364;2023-03-14T00:40:58;19.83;;;3.70;;
69594;SDS011;56800;52.142;5.364;2023-03-14T00:43:25;20.15;;;4.13;;
69594;SDS011;56800;52.142;5.364;2023-03-14T00:45:52;20.30;;;3.45;;
69594;SDS011;56800;52.142;5.364;2023-03-14T00:48:19;16.20;;;3.08;;
69594;SDS011;56800;52.142;5.364;2023-03-14T00:50:46;18.33;;;2.77;;
69594;SDS011;56800;52.142;5.364;2023-03-14T00:53:13;15.30;;;2.85;;
69594;SDS011;56800;52.142;5.364;2023-03-14T00:55:40;9.77;;;2.47;;
69594;SDS011;56800;52.142;5.364;2023-03-14T00:58:09;16.08;;;2.83;;
69594;SDS011;56800;52.142;5.364;2023-03-14T01:00:37;12.93;;;2.63;;
69594;SDS011;56800;52.142;5.364;2023-03-14T01:03:04;21.07;;;2.93;;
69594;SDS011;56800;52.142;5.364;2023-03-14T01:05:32;14.23;;;2.22;;
69594;SDS011;56800;52.142;5.364;2023-03-14T01:07:59;14.18;;;2.38;;
69594;SDS011;56800;52.142;5.364;2023-03-14T01:10:25;15.40;;;2.65;;
69594;SDS011;56800;52.142;5.364;2023-03-14T01:12:52;11.32;;;2.22;;
69594;SDS011;56800;52.142;5.364;2023-03-14T01:15:19;17.80;;;2.63;;
69594;SDS011;56800;52.142;5.364;2023-03-14T01:17:46;10.55;;;2.60;;
69594;SDS011;56800;52.142;5.364;2023-03-14T01:20:13;9.93;;;2.60;;
69594;SDS011;56800;52.142;5.364;2023-03-14T01:22:41;21.42;;;3.33;;
69594;SDS011;56800;52.142;5.364;2023-03-14T01:25:11;12.55;;;2.45;;
69594;SDS011;56800;52.142;5.364;2023-03-14T01:27:40;10.67;;;2.33;;
69594;SDS011;56800;52.142;5.364;2023-03-14T01:30:08;9.70;;;2.00;;
69594;SDS011;56800;52.142;5.364;2023-03-14T01:32:36;10.55;;;2.38;;
69594;SDS011;56800;52.142;5.364;2023-03-14T01:35:03;10.90;;;2.53;;
69594;SDS011;56800;52.142;5.364;2023-03-14T01:37:30;12.32;;;2.50;;
69594;SDS011;56800;52.142;5.364;2023-03-14T01:39:57;13.73;;;2.57;;
69594;SDS011;56800;52.142;5.364;2023-03-14T01:42:23;11.85;;;2.65;;
69594;SDS011;56800;52.142;5.364;2023-03-14T01:44:52;13.63;;;2.72;;
69594;SDS011;56800;52.142;5.364;2023-03-14T01:47:21;13.52;;;2.67;;
69594;SDS011;56800;52.142;5.364;2023-03-14T01:50:22;14.55;;;2.95;;
69594;SDS011;56800;52.142;5.364;2023-03-14T01:52:43;13.00;;;2.20;;
69594;SDS011;56800;52.142;5.364;2023-03-14T01:55:23;20.80;;;3.45;;
69594;SDS011;56800;52.142;5.364;2023-03-14T01:57:52;10.52;;;2.00;;
69594;SDS011;56800;52.142;5.364;2023-03-14T02:00:24;10.50;;;2.35;;
69594;SDS011;56800;52.142;5.364;2023-03-14T02:02:58;16.17;;;2.47;;
69594;SDS011;56800;52.142;5.364;2023-03-14T02:05:34;14.57;;;2.73;;
69594;SDS011;56800;52.142;5.364;2023-03-14T02:08:04;14.10;;;2.42;;
69594;SDS011;56800;52.142;5.364;2023-03-14T02:10:35;10.07;;;1.75;;
69594;SDS011;56800;52.142;5.364;2023-03-14T02:13:05;15.50;;;2.25;;
69594;SDS011;56800;52.142;5.364;2023-03-14T02:15:32;19.08;;;2.28;;
69594;SDS011;56800;52.142;5.364;2023-03-14T02:17:59;12.13;;;1.87;;
69594;SDS011;56800;52.142;5.364;2023-03-14T02:26:41;11.43;;;1.90;;
69594;SDS011;56800;52.142;5.364;2023-03-14T02:29:13;11.93;;;2.03;;
69594;SDS011;56800;52.142;5.364;2023-03-14T02:31:40;10.30;;;1.83;;
69594;SDS011;56800;52.142;5.364;2023-03-14T02:34:06;16.33;;;2.75;;
69594;SDS011;56800;52.142;5.364;2023-03-14T02:36:33;10.93;;;2.03;;
69594;SDS011;56800;52.142;5.364;2023-03-14T02:39:03;10.60;;;1.95;;
69594;SDS011;56800;52.142;5.364;2023-03-14T02:42:02;8.25;;;1.45;;
69594;SDS011;56800;52.142;5.364;2023-03-14T02:44:28;12.40;;;1.80;;
69594;SDS011;56800;52.142;5.364;2023-03-14T02:46:55;11.52;;;2.08;;
69594;SDS011;56800;52.142;5.364;2023-03-14T02:49:22;10.05;;;1.80;;
69594;SDS011;56800;52.142;5.364;2023-03-14T02:51:50;11.68;;;2.20;;
69594;SDS011;56800;52.142;5.364;2023-03-14T02:54:17;9.93;;;2.15;;
69594;SDS011;56800;52.142;5.364;2023-03-14T02:56:46;11.17;;;2.07;;
69594;SDS011;56800;52.142;5.364;2023-03-14T02:59:13;12.65;;;2.53;;
69594;SDS011;56800;52.142;5.364;2023-03-14T03:01:39;11.18;;;2.63;;
69594;SDS011;56800;52.142;5.364;2023-03-14T03:04:06;10.98;;;2.38;;
69594;SDS011;56800;52.142;5.364;2023-03-14T03:06:33;11.40;;;2.33;;
69594;SDS011;56800;52.142;5.364;2023-03-14T03:08:59;12.23;;;2.77;;
69594;SDS011;56800;52.142;5.364;2023-03-14T03:11:27;9.63;;;2.53;;
69594;SDS011;56800;52.142;5.364;2023-03-14T03:13:54;17.40;;;2.47;;
69594;SDS011;56800;52.142;5.364;2023-03-14T03:16:20;11.25;;;2.33;;
69594;SDS011;56800;52.142;5.364;2023-03-14T03:18:47;13.40;;;2.67;;
69594;SDS011;56800;52.142;5.364;2023-03-14T03:21:14;12.90;;;2.27;;
69594;SDS011;56800;52.142;5.364;2023-03-14T03:23:42;10.25;;;2.00;;
69594;SDS011;56800;52.142;5.364;2023-03-14T03:26:09;11.98;;;2.75;;
69594;SDS011;56800;52.142;5.364;2023-03-14T03:28:36;15.63;;;2.47;;
69594;SDS011;56800;52.142;5.364;2023-03-14T03:31:09;13.80;;;2.53;;
69594;SDS011;56800;52.142;5.364;2023-03-14T03:33:37;12.53;;;3.10;;
69594;SDS011;56800;52.142;5.364;2023-03-14T03:36:04;13.30;;;2.88;;
69594;SDS011;56800;52.142;5.364;2023-03-14T03:38:31;12.02;;;2.50;;
69594;SDS011;56800;52.142;5.364;2023-03-14T03:40:58;13.95;;;2.58;;
69594;SDS011;56800;52.142;5.364;2023-03-14T03:43:27;12.88;;;2.78;;
69594;SDS011;56800;52.142;5.364;2023-03-14T03:45:54;14.33;;;3.50;;
69594;SDS011;56800;52.142;5.364;2023-03-14T03:48:21;15.35;;;3.03;;
69594;SDS011;56800;52.142;5.364;2023-03-14T03:50:47;10.55;;;2.70;;
69594;SDS011;56800;52.142;5.364;2023-03-14T03:53:14;14.35;;;2.70;;
69594;SDS011;56800;52.142;5.364;2023-03-14T03:55:57;14.48;;;3.47;;
69594;SDS011;56800;52.142;5.364;2023-03-14T03:58:24;11.70;;;2.37;;
69594;SDS011;56800;52.142;5.364;2023-03-14T04:00:50;20.70;;;2.60;;
69594;SDS011;56800;52.142;5.364;2023-03-14T04:03:17;14.07;;;2.38;;
69594;SDS011;56800;52.142;5.364;2023-03-14T04:05:44;11.55;;;2.33;;
69594;SDS011;56800;52.142;5.364;2023-03-14T04:08:11;16.42;;;2.67;;
69594;SDS011;56800;52.142;5.364;2023-03-14T04:10:37;17.87;;;2.87;;
69594;SDS011;56800;52.142;5.364;2023-03-14T04:13:04;16.15;;;2.45;;
69594;SDS011;56800;52.142;5.364;2023-03-14T04:15:31;15.15;;;2.80;;
69594;SDS011;56800;52.142;5.364;2023-03-14T04:17:58;16.08;;;2.50;;
69594;SDS011;56800;52.142;5.364;2023-03-14T04:20:24;14.23;;;2.72;;
69594;SDS011;56800;52.142;5.364;2023-03-14T04:22:51;12.73;;;2.60;;
69594;SDS011;56800;52.142;5.364;2023-03-14T04:25:18;11.50;;;2.30;;
69594;SDS011;56800;52.142;5.364;2023-03-14T04:27:46;10.00;;;2.40;;
69594;SDS011;56800;52.142;5.364;2023-03-14T04:30:13;14.95;;;2.80;;
69594;SDS011;56800;52.142;5.364;2023-03-14T04:32:40;11.93;;;3.17;;
69594;SDS011;56800;52.142;5.364;2023-03-14T04:35:06;14.03;;;2.33;;
69594;SDS011;56800;52.142;5.364;2023-03-14T04:37:33;14.65;;;2.20;;
69594;SDS011;56800;52.142;5.364;2023-03-14T04:40:00;16.67;;;2.70;;
69594;SDS011;56800;52.142;5.364;2023-03-14T04:42:27;16.00;;;2.60;;
69594;SDS011;56800;52.142;5.364;2023-03-14T04:44:54;17.75;;;2.45;;
69594;SDS011;56800;52.142;5.364;2023-03-14T04:47:20;16.33;;;2.43;;
69594;SDS011;56800;52.142;5.364;2023-03-14T04:49:47;12.88;;;2.45;;
69594;SDS011;56800;52.142;5.364;2023-03-14T04:52:13;13.20;;;3.03;;
69594;SDS011;56800;52.142;5.364;2023-03-14T04:54:40;9.90;;;2.08;;
69594;SDS011;56800;52.142;5.364;2023-03-14T04:57:07;9.77;;;2.22;;
69594;SDS011;56800;52.142;5.364;2023-03-14T04:59:33;12.40;;;2.63;;
69594;SDS011;56800;52.142;5.364;2023-03-14T05:02:00;9.60;;;2.38;;
69594;SDS011;56800;52.142;5.364;2023-03-14T05:04:27;19.73;;;2.83;;
69594;SDS011;56800;52.142;5.364;2023-03-14T05:06:53;9.18;;;2.15;;
69594;SDS011;56800;52.142;5.364;2023-03-14T05:09:20;11.68;;;2.80;;
69594;SDS011;56800;52.142;5.364;2023-03-14T05:11:47;13.37;;;2.83;;
69594;SDS011;56800;52.142;5.364;2023-03-14T05:14:13;9.82;;;2.67;;
69594;SDS011;56800;52.142;5.364;2023-03-14T05:16:40;11.38;;;3.00;;
69594;SDS011;56800;52.142;5.364;2023-03-14T05:19:07;9.63;;;2.55;;
69594;SDS011;56800;52.142;5.364;2023-03-14T05:21:33;10.38;;;2.53;;
69594;SDS011;56800;52.142;5.364;2023-03-14T05:24:00;14.10;;;2.63;;
69594;SDS011;56800;52.142;5.364;2023-03-14T05:26:26;10.95;;;2.75;;
69594;SDS011;56800;52.142;5.364;2023-03-14T05:28:53;12.20;;;2.60;;
69594;SDS011;56800;52.142;5.364;2023-03-14T05:31:20;13.45;;;3.05;;
69594;SDS011;56800;52.142;5.364;2023-03-14T05:33:47;14.30;;;2.83;;
69594;SDS011;56800;52.142;5.364;2023-03-14T05:36:13;9.23;;;2.90;;
69594;SDS011;56800;52.142;5.364;2023-03-14T05:38:40;14.98;;;2.30;;
69594;SDS011;56800;52.142;5.364;2023-03-14T05:41:07;15.93;;;3.83;;
69594;SDS011;56800;52.142;5.364;2023-03-14T05:43:33;14.18;;;2.80;;
69594;SDS011;56800;52.142;5.364;2023-03-14T05:46:00;15.68;;;3.40;;
69594;SDS011;56800;52.142;5.364;2023-03-14T05:48:27;12.53;;;3.20;;
69594;SDS011;56800;52.142;5.364;2023-03-14T05:50:54;14.75;;;3.40;;
69594;SDS011;56800;52.142;5.364;2023-03-14T05:53:21;13.70;;;4.07;;
69594;SDS011;56800;52.142;5.364;2023-03-14T05:55:51;14.18;;;3.35;;
69594;SDS011;56800;52.142;5.364;2023-03-14T05:58:21;14.07;;;3.92;;
69594;SDS011;56800;52.142;5.364;2023-03-14T06:00:48;12.30;;;4.47;;
69594;SDS011;56800;52.142;5.364;2023-03-14T06:03:15;14.70;;;3.80;;
69594;SDS011;56800;52.142;5.364;2023-03-14T06:05:42;9.95;;;4.30;;
69594;SDS011;56800;52.142;5.364;2023-03-14T06:08:09;13.48;;;4.80;;
69594;SDS011;56800;52.142;5.364;2023-03-14T06:10:36;10.35;;;4.50;;
69594;SDS011;56800;52.142;5.364;2023-03-14T06:13:03;12.50;;;4.63;;
69594;SDS011;56800;52.142;5.364;2023-03-14T06:15:30;12.82;;;4.55;;
69594;SDS011;56800;52.142;5.364;2023-03-14T06:17:56;13.10;;;5.13;;
69594;SDS011;56800;52.142;5.364;2023-03-14T06:20:23;15.82;;;5.40;;
69594;SDS011;56800;52.142;5.364;2023-03-14T06:22:49;12.55;;;4.78;;
69594;SDS011;56800;52.142;5.364;2023-03-14T06:25:16;15.23;;;6.10;;
69594;SDS011;56800;52.142;5.364;2023-03-14T06:27:43;11.43;;;5.65;;
69594;SDS011;56800;52.142;5.364;2023-03-14T06:30:10;14.10;;;5.93;;
69594;SDS011;56800;52.142;5.364;2023-03-14T06:32:37;33.08;;;6.72;;
69594;SDS011;56800;52.142;5.364;2023-03-14T06:35:03;25.98;;;6.63;;
69594;SDS011;56800;52.142;5.364;2023-03-14T06:37:30;11.30;;;5.37;;
69594;SDS011;56800;52.142;5.364;2023-03-14T06:39:57;11.35;;;4.20;;
69594;SDS011;56800;52.142;5.364;2023-03-14T06:42:24;6.65;;;3.40;;
69594;SDS011;56800;52.142;5.364;2023-03-14T06:44:50;7.13;;;2.78;;
69594;SDS011;56800;52.142;5.364;2023-03-14T06:47:17;8.60;;;2.10;;
69594;SDS011;56800;52.142;5.364;2023-03-14T06:49:44;4.57;;;1.37;;
69594;SDS011;56800;52.142;5.364;2023-03-14T06:52:10;3.38;;;1.10;;
69594;SDS011;56800;52.142;5.364;2023-03-14T06:54:37;3.80;;;1.10;;
69594;SDS011;56800;52.142;5.364;2023-03-14T06:57:03;6.28;;;1.08;;
69594;SDS011;56800;52.142;5.364;2023-03-14T06:59:30;3.10;;;1.20;;
69594;SDS011;56800;52.142;5.364;2023-03-14T07:01:57;2.90;;;0.93;;
69594;SDS011;56800;52.142;5.364;2023-03-14T07:04:23;5.43;;;1.10;;
69594;SDS011;56800;52.142;5.364;2023-03-14T07:06:50;2.92;;;1.00;;
69594;SDS011;56800;52.142;5.364;2023-03-14T07:09:17;3.03;;;1.10;;
69594;SDS011;56800;52.142;5.364;2023-03-14T07:11:43;3.25;;;1.15;;
69594;SDS011;56800;52.142;5.364;2023-03-14T07:14:10;4.27;;;0.97;;
69594;SDS011;56800;52.142;5.364;2023-03-14T07:16:37;5.82;;;1.25;;
69594;SDS011;56800;52.142;5.364;2023-03-14T07:19:03;3.75;;;1.60;;
69594;SDS011;56800;52.142;5.364;2023-03-14T07:21:30;4.82;;;1.30;;
69594;SDS011;56800;52.142;5.364;2023-03-14T07:23:58;6.13;;;1.42;;
69594;SDS011;56800;52.142;5.364;2023-03-14T07:26:25;7.67;;;1.27;;
69594;SDS011;56800;52.142;5.364;2023-03-14T07:28:51;1.83;;;0.88;;
69594;SDS011;56800;52.142;5.364;2023-03-14T07:31:18;3.15;;;1.10;;
69594;SDS011;56800;52.142;5.364;2023-03-14T07:33:45;2.92;;;0.80;;
69594;SDS011;56800;52.142;5.364;2023-03-14T07:36:12;2.40;;;0.90;;
69594;SDS011;56800;52.142;5.364;2023-03-14T07:38:38;3.03;;;0.93;;
69594;SDS011;56800;52.142;5.364;2023-03-14T07:41:05;3.17;;;1.00;;
69594;SDS011;56800;52.142;5.364;2023-03-14T07:43:33;2.85;;;0.90;;
69594;SDS011;56800;52.142;5.364;2023-03-14T07:45:59;2.83;;;0.93;;
69594;SDS011;56800;52.142;5.364;2023-03-14T07:48:26;3.35;;;1.20;;
69594;SDS011;56800;52.142;5.364;2023-03-14T07:50:54;3.23;;;1.27;;
69594;SDS011;56800;52.142;5.364;2023-03-14T07:53:21;4.18;;;1.20;;
69594;SDS011;56800;52.142;5.364;2023-03-14T07:55:49;5.78;;;1.30;;
69594;SDS011;56800;52.142;5.364;2023-03-14T07:58:17;7.13;;;1.35;;
69594;SDS011;56800;52.142;5.364;2023-03-14T08:00:44;5.72;;;1.25;;
69594;SDS011;56800;52.142;5.364;2023-03-14T08:03:11;8.53;;;1.40;;
69594;SDS011;56800;52.142;5.364;2023-03-14T08:05:38;9.70;;;1.35;;
69594;SDS011;56800;52.142;5.364;2023-03-14T08:08:06;7.80;;;1.30;;
69594;SDS011;56800;52.142;5.364;2023-03-14T08:10:32;7.75;;;1.10;;
69594;SDS011;56800;52.142;5.364;2023-03-14T08:12:59;8.50;;;1.30;;
69594;SDS011;56800;52.142;5.364;2023-03-14T08:15:27;9.33;;;1.20;;
69594;SDS011;56800;52.142;5.364;2023-03-14T08:17:56;10.38;;;1.50;;
69594;SDS011;56800;52.142;5.364;2023-03-14T08:20:24;5.53;;;1.02;;
69594;SDS011;56800;52.142;5.364;2023-03-14T08:22:55;7.30;;;1.30;;
69594;SDS011;56800;52.142;5.364;2023-03-14T08:25:24;7.90;;;1.10;;
69594;SDS011;56800;52.142;5.364;2023-03-14T08:27:53;6.80;;;1.00;;
69594;SDS011;56800;52.142;5.364;2023-03-14T08:30:21;7.10;;;1.13;;
69594;SDS011;56800;52.142;5.364;2023-03-14T08:32:48;8.40;;;0.75;;
69594;SDS011;56800;52.142;5.364;2023-03-14T08:35:15;8.20;;;1.00;;
69594;SDS011;56800;52.142;5.364;2023-03-14T08:37:42;5.00;;;1.05;;
69594;SDS011;56800;52.142;5.364;2023-03-14T08:40:09;8.53;;;1.07;;
69594;SDS011;56800;52.142;5.364;2023-03-14T08:42:38;3.75;;;0.80;;
69594;SDS011;56800;52.142;5.364;2023-03-14T08:45:05;4.05;;;0.70;;
69594;SDS011;56800;52.142;5.364;2023-03-14T08:47:33;9.48;;;0.95;;
69594;SDS011;56800;52.142;5.364;2023-03-14T08:50:00;8.43;;;1.00;;
69594;SDS011;56800;52.142;5.364;2023-03-14T08:52:27;4.60;;;0.80;;
69594;SDS011;56800;52.142;5.364;2023-03-14T08:54:53;6.03;;;1.20;;
69594;SDS011;56800;52.142;5.364;2023-03-14T08:57:20;9.50;;;1.20;;
69594;SDS011;56800;52.142;5.364;2023-03-14T08:59:47;4.43;;;1.65;;
69594;SDS011;56800;52.142;5.364;2023-03-14T09:02:14;8.50;;;1.27;;
69594;SDS011;56800;52.142;5.364;2023-03-14T09:04:41;9.80;;;1.37;;
69594;SDS011;56800;52.142;5.364;2023-03-14T09:07:07;15.70;;;2.05;;
69594;SDS011;56800;52.142;5.364;2023-03-14T09:09:34;16.88;;;2.63;;
69594;SDS011;56800;52.142;5.364;2023-03-14T09:12:01;14.48;;;2.95;;
69594;SDS011;56800;52.142;5.364;2023-03-14T09:14:27;11.65;;;1.73;;
69594;SDS011;56800;52.142;5.364;2023-03-14T09:16:54;7.80;;;1.50;;
69594;SDS011;56800;52.142;5.364;2023-03-14T09:19:21;15.35;;;1.80;;
69594;SDS011;56800;52.142;5.364;2023-03-14T09:21:48;11.90;;;1.77;;
69594;SDS011;56800;52.142;5.364;2023-03-14T09:24:15;8.57;;;1.45;;
69594;SDS011;56800;52.142;5.364;2023-03-14T09:26:42;16.85;;;1.52;;
69594;SDS011;56800;52.142;5.364;2023-03-14T09:29:09;18.77;;;1.73;;
69594;SDS011;56800;52.142;5.364;2023-03-14T09:31:36;11.60;;;1.95;;
69594;SDS011;56800;52.142;5.364;2023-03-14T09:34:03;14.13;;;1.92;;
69594;SDS011;56800;52.142;5.364;2023-03-14T09:36:30;19.42;;;2.13;;
69594;SDS011;56800;52.142;5.364;2023-03-14T09:38:57;20.83;;;2.17;;
69594;SDS011;56800;52.142;5.364;2023-03-14T09:41:25;15.70;;;2.13;;
69594;SDS011;56800;52.142;5.364;2023-03-14T09:44:01;23.13;;;2.00;;
69594;SDS011;56800;52.142;5.364;2023-03-14T09:46:35;21.10;;;2.25;;
69594;SDS011;56800;52.142;5.364;2023-03-14T09:49:21;16.90;;;1.75;;
69594;SDS011;56800;52.142;5.364;2023-03-14T09:51:54;15.50;;;1.67;;
69594;SDS011;56800;52.142;5.364;2023-03-14T09:54:34;10.13;;;1.60;;
69594;SDS011;56800;52.142;5.364;2023-03-14T09:57:11;16.52;;;2.50;;
69594;SDS011;56800;52.142;5.364;2023-03-14T09:59:47;14.18;;;1.90;;
69594;SDS011;56800;52.142;5.364;2023-03-14T10:02:19;16.50;;;2.67;;
69594;SDS011;56800;52.142;5.364;2023-03-14T10:04:49;16.35;;;2.42;;
69594;SDS011;56800;52.142;5.364;2023-03-14T10:07:19;16.77;;;2.10;;
69594;SDS011;56800;52.142;5.364;2023-03-14T10:09:53;17.65;;;2.42;;
69594;SDS011;56800;52.142;5.364;2023-03-14T10:12:19;14.07;;;2.40;;
69594;SDS011;56800;52.142;5.364;2023-03-14T10:14:55;15.13;;;2.30;;
69594;SDS011;56800;52.142;5.364;2023-03-14T10:17:22;18.95;;;3.15;;
69594;SDS011;56800;52.142;5.364;2023-03-14T10:19:56;15.27;;;2.70;;
69594;SDS011;56800;52.142;5.364;2023-03-14T10:22:26;16.20;;;2.47;;
69594;SDS011;56800;52.142;5.364;2023-03-14T10:24:57;21.50;;;2.78;;
69594;SDS011;56800;52.142;5.364;2023-03-14T10:27:35;14.80;;;2.47;;
69594;SDS011;56800;52.142;5.364;2023-03-14T10:30:03;18.67;;;2.70;;
69594;SDS011;56800;52.142;5.364;2023-03-14T10:32:34;28.07;;;2.97;;
69594;SDS011;56800;52.142;5.364;2023-03-14T10:35:11;25.40;;;2.67;;
69594;SDS011;56800;52.142;5.364;2023-03-14T10:37:58;15.98;;;2.35;;
69594;SDS011;56800;52.142;5.364;2023-03-14T10:40:28;20.27;;;2.58;;
69594;SDS011;56800;52.142;5.364;2023-03-14T10:42:58;25.13;;;2.70;;
69594;SDS011;56800;52.142;5.364;2023-03-14T10:45:33;20.83;;;3.20;;
69594;SDS011;56800;52.142;5.364;2023-03-14T10:50:49;22.27;;;2.42;;
69594;SDS011;56800;52.142;5.364;2023-03-14T10:53:19;19.13;;;2.70;;
69594;SDS011;56800;52.142;5.364;2023-03-14T10:55:46;22.92;;;2.63;;
69594;SDS011;56800;52.142;5.364;2023-03-14T10:58:17;17.00;;;2.40;;
69594;SDS011;56800;52.142;5.364;2023-03-14T11:00:56;23.92;;;3.28;;
69594;SDS011;56800;52.142;5.364;2023-03-14T11:03:28;19.58;;;3.03;;
69594;SDS011;56800;52.142;5.364;2023-03-14T11:08:48;21.60;;;3.28;;
69594;SDS011;56800;52.142;5.364;2023-03-14T11:11:31;19.23;;;3.07;;
69594;SDS011;56800;52.142;5.364;2023-03-14T11:17:09;18.95;;;2.40;;
69594;SDS011;56800;52.142;5.364;2023-03-14T11:19:42;19.40;;;3.03;;
69594;SDS011;56800;52.142;5.364;2023-03-14T11:22:34;17.20;;;2.47;;
69594;SDS011;56800;52.142;5.364;2023-03-14T11:28:09;19.58;;;2.67;;
69594;SDS011;56800;52.142;5.364;2023-03-14T11:33:24;13.85;;;1.88;;
69594;SDS011;56800;52.142;5.364;2023-03-14T11:35:59;10.95;;;1.80;;
69594;SDS011;56800;52.142;5.364;2023-03-14T11:41:14;22.52;;;2.63;;
69594;SDS011;56800;52.142;5.364;2023-03-14T11:43:48;17.83;;;2.58;;
69594;SDS011;56800;52.142;5.364;2023-03-14T11:46:23;17.98;;;2.45;;
69594;SDS011;56800;52.142;5.364;2023-03-14T11:50:03;11.88;;;2.30;;
69594;SDS011;56800;52.142;5.364;2023-03-14T11:52:20;11.97;;;2.00;;
69594;SDS011;56800;52.142;5.364;2023-03-14T11:55:13;14.07;;;1.75;;
69594;SDS011;56800;52.142;5.364;2023-03-14T11:57:56;15.40;;;2.40;;
69594;SDS011;56800;52.142;5.364;2023-03-14T12:00:27;7.68;;;1.63;;
69594;SDS011;56800;52.142;5.364;2023-03-14T12:11:21;12.43;;;1.70;;
69594;SDS011;56800;52.142;5.364;2023-03-14T12:13:49;14.00;;;2.40;;
69594;SDS011;56800;52.142;5.364;2023-03-14T12:16:39;14.13;;;2.08;;
69594;SDS011;56800;52.142;5.364;2023-03-14T12:19:13;11.27;;;1.77;;
69594;SDS011;56800;52.142;5.364;2023-03-14T12:21:58;10.88;;;2.00;;
69594;SDS011;56800;52.142;5.364;2023-03-14T12:24:32;11.75;;;1.88;;
69594;SDS011;56800;52.142;5.364;2023-03-14T12:27:02;9.15;;;1.92;;
69594;SDS011;56800;52.142;5.364;2023-03-14T12:29:31;10.65;;;1.92;;
69594;SDS011;56800;52.142;5.364;2023-03-14T12:34:31;12.52;;;2.10;;
69594;SDS011;56800;52.142;5.364;2023-03-14T12:37:05;10.18;;;1.80;;
69594;SDS011;56800;52.142;5.364;2023-03-14T12:45:28;12.00;;;1.73;;
69594;SDS011;56800;52.142;5.364;2023-03-14T12:50:56;10.20;;;1.95;;
69594;SDS011;56800;52.142;5.364;2023-03-14T12:53:47;8.80;;;1.52;;
69594;SDS011;56800;52.142;5.364;2023-03-14T12:59:35;7.50;;;1.67;;
69594;SDS011;56800;52.142;5.364;2023-03-14T13:04:34;10.27;;;1.73;;
69594;SDS011;56800;52.142;5.364;2023-03-14T13:07:13;9.20;;;1.80;;
69594;SDS011;56800;52.142;5.364;2023-03-14T13:09:59;14.80;;;1.83;;
69594;SDS011;56800;52.142;5.364;2023-03-14T13:12:32;6.90;;;1.90;;
69594;SDS011;56800;52.142;5.364;2023-03-14T13:15:22;5.45;;;1.30;;
69594;SDS011;56800;52.142;5.364;2023-03-14T13:18:10;9.75;;;1.73;;
69594;SDS011;56800;52.142;5.364;2023-03-14T13:20:45;14.20;;;1.70;;
69594;SDS011;56800;52.142;5.364;2023-03-14T13:23:27;9.40;;;1.58;;
69594;SDS011;56800;52.142;5.364;2023-03-14T13:25:56;9.03;;;1.70;;
69594;SDS011;56800;52.142;5.364;2023-03-14T13:28:23;5.47;;;1.42;;
69594;SDS011;56800;52.142;5.364;2023-03-14T13:30:50;7.65;;;2.05;;
69594;SDS011;56800;52.142;5.364;2023-03-14T13:33:22;8.40;;;1.58;;
69594;SDS011;56800;52.142;5.364;2023-03-14T13:35:59;8.30;;;1.55;;
69594;SDS011;56800;52.142;5.364;2023-03-14T13:38:32;5.43;;;1.37;;
69594;SDS011;56800;52.142;5.364;2023-03-14T13:41:04;7.22;;;1.67;;
69594;SDS011;56800;52.142;5.364;2023-03-14T13:43:41;7.38;;;1.70;;
69594;SDS011;56800;52.142;5.364;2023-03-14T13:46:13;10.30;;;1.70;;
69594;SDS011;56800;52.142;5.364;2023-03-14T13:48:55;6.63;;;1.83;;
69594;SDS011;56800;52.142;5.364;2023-03-14T13:51:24;6.33;;;1.50;;
69594;SDS011;56800;52.142;5.364;2023-03-14T13:53:55;15.23;;;1.98;;
69594;SDS011;56800;52.142;5.364;2023-03-14T13:56:27;11.18;;;2.00;;
69594;SDS011;56800;52.142;5.364;2023-03-14T13:58:55;11.43;;;2.30;;
69594;SDS011;56800;52.142;5.364;2023-03-14T14:01:35;16.33;;;2.20;;
69594;SDS011;56800;52.142;5.364;2023-03-14T14:04:14;15.80;;;2.60;;
69594;SDS011;56800;52.142;5.364;2023-03-14T14:06:46;11.95;;;2.50;;
69594;SDS011;56800;52.142;5.364;2023-03-14T14:09:19;14.65;;;2.50;;
69594;SDS011;56800;52.142;5.364;2023-03-14T14:11:59;10.38;;;2.30;;
69594;SDS011;56800;52.142;5.364;2023-03-14T14:17:24;12.67;;;1.80;;
69594;SDS011;56800;52.142;5.364;2023-03-14T14:20:03;9.85;;;1.70;;
69594;SDS011;56800;52.142;5.364;2023-03-14T14:22:32;8.30;;;1.60;;
69594;SDS011;56800;52.142;5.364;2023-03-14T14:25:00;10.38;;;1.90;;
69594;SDS011;56800;52.142;5.364;2023-03-14T14:27:29;12.52;;;1.80;;
69594;SDS011;56800;52.142;5.364;2023-03-14T14:30:44;8.63;;;1.83;;
69594;SDS011;56800;52.142;5.364;2023-03-14T14:33:06;10.35;;;2.08;;
69594;SDS011;56800;52.142;5.364;2023-03-14T14:35:42;7.40;;;1.52;;
69594;SDS011;56800;52.142;5.364;2023-03-14T14:38:17;5.15;;;1.52;;
69594;SDS011;56800;52.142;5.364;2023-03-14T14:40:46;8.48;;;1.40;;
69594;SDS011;56800;52.142;5.364;2023-03-14T14:43:21;11.43;;;1.83;;
69594;SDS011;56800;52.142;5.364;2023-03-14T14:45:51;12.20;;;1.67;;
69594;SDS011;56800;52.142;5.364;2023-03-14T14:48:23;7.95;;;1.58;;
69594;SDS011;56800;52.142;5.364;2023-03-14T14:56:07;6.27;;;1.30;;
69594;SDS011;56800;52.142;5.364;2023-03-14T14:58:58;5.30;;;1.30;;
69594;SDS011;56800;52.142;5.364;2023-03-14T15:01:34;8.52;;;1.60;;
69594;SDS011;56800;52.142;5.364;2023-03-14T15:04:12;8.57;;;1.35;;
69594;SDS011;56800;52.142;5.364;2023-03-14T15:06:42;11.25;;;1.95;;
69594;SDS011;56800;52.142;5.364;2023-03-14T15:09:10;9.40;;;1.40;;
69594;SDS011;56800;52.142;5.364;2023-03-14T15:11:37;6.13;;;1.63;;
69594;SDS011;56800;52.142;5.364;2023-03-14T15:14:04;7.57;;;1.70;;
69594;SDS011;56800;52.142;5.364;2023-03-14T15:16:32;12.00;;;1.52;;
69594;SDS011;56800;52.142;5.364;2023-03-14T15:19:00;8.45;;;1.55;;
69594;SDS011;56800;52.142;5.364;2023-03-14T15:21:48;10.70;;;1.37;;
69594;SDS011;56800;52.142;5.364;2023-03-14T15:24:15;6.82;;;1.40;;
69594;SDS011;56800;52.142;5.364;2023-03-14T15:26:42;9.00;;;1.67;;
69594;SDS011;56800;52.142;5.364;2023-03-14T15:29:11;4.75;;;1.05;;
69594;SDS011;56800;52.142;5.364;2023-03-14T15:31:39;10.50;;;1.55;;
69594;SDS011;56800;52.142;5.364;2023-03-14T15:34:06;7.20;;;1.53;;
69594;SDS011;56800;52.142;5.364;2023-03-14T15:36:34;9.55;;;1.75;;
69594;SDS011;56800;52.142;5.364;2023-03-14T15:39:02;12.63;;;1.80;;
69594;SDS011;56800;52.142;5.364;2023-03-14T15:41:30;10.68;;;1.27;;
69594;SDS011;56800;52.142;5.364;2023-03-14T15:43:57;6.57;;;1.30;;
69594;SDS011;56800;52.142;5.364;2023-03-14T15:46:24;9.20;;;1.33;;
69594;SDS011;56800;52.142;5.364;2023-03-14T15:48:51;8.20;;;1.60;;
69594;SDS011;56800;52.142;5.364;2023-03-14T15:51:18;7.47;;;1.13;;